Time;durP1;ratioP1;P1;durP2;ratioP2;P2;SDS_P1;SDS_P2;PMS_P1;PMS_P2;Temp;Humidity;BMP_temperature;BMP_pressure;BME280_temperature;BME280_humidity;BME280_pressure;Samples;Min_cycle;Max_cycle;Signal;HPM_P1;HPM_P2
2021/11/20 00:01:28;;;;;;;38.70;18.10;;;;;;;5.18;80.79;98754.20;24447;1357;3027380;-72
2021/11/20 00:03:57;;;;;;;39.10;17.60;;;;;;;5.08;81.01;98750.50;24428;1355;3026365;-72
2021/11/20 00:06:30;;;;;;;45.40;19.20;;;;;;;5.13;80.52;98738.48;24259;1357;3028800;-71
2021/11/20 00:09:02;;;;;;;33.00;14.10;;;;;;;4.87;81.68;98742.02;24456;1359;3071705;-73
2021/11/20 00:11:32;;;;;;;31.00;14.50;;;;;;;5.29;80.68;98736.31;24509;1354;3026690;-65
2021/11/20 00:14:02;;;;;;;47.50;18.70;;;;;;;5.52;80.10;98735.30;24498;1359;3027172;-68
2021/11/20 00:16:33;;;;;;;34.40;15.80;;;;;;;5.62;79.33;98725.60;24487;1355;3026611;-66
2021/11/20 00:19:03;;;;;;;37.90;18.60;;;;;;;5.31;80.04;98728.23;24464;1354;3026484;-69
2021/11/20 00:21:38;;;;;;;43.70;15.90;;;;;;;5.01;81.38;98723.82;24461;1355;3027713;-73
2021/11/20 00:24:19;;;;;;;34.70;15.80;;;;;;;4.71;82.77;98714.30;24496;1358;3056077;-68
2021/11/20 00:26:48;;;;;;;30.30;15.70;;;;;;;5.30;81.48;98709.84;24469;1354;3054641;-71
2021/11/20 00:31:55;;;;;;;41.90;17.60;;;;;;;5.49;80.37;98688.19;24458;1361;3026569;-72
2021/11/20 00:34:27;;;;;;;54.10;19.80;;;;;;;5.08;80.94;98683.53;24379;1359;3050293;-71
2021/11/20 00:36:56;;;;;;;39.60;15.00;;;;;;;4.75;82.87;98685.69;24424;1355;3026535;-71
2021/11/20 00:39:28;;;;;;;36.50;16.60;;;;;;;4.75;82.58;98684.60;24444;1359;3026642;-73
2021/11/20 00:41:57;;;;;;;39.20;16.80;;;;;;;5.03;82.57;98679.80;24432;1360;3053259;-70
2021/11/20 00:44:27;;;;;;;36.10;14.60;;;;;;;5.40;80.90;98672.83;24387;1357;3026648;-71
2021/11/20 00:46:56;;;;;;;31.20;15.10;;;;;;;5.25;81.38;98666.52;24463;1359;3027056;-69
2021/11/20 00:49:25;;;;;;;53.30;19.70;;;;;;;5.31;80.85;98667.23;24467;1358;3026495;-66
2021/11/20 00:51:55;;;;;;;57.70;22.30;;;;;;;4.89;82.24;98673.38;24448;1354;3070876;-71
2021/11/20 00:54:24;;;;;;;48.00;18.60;;;;;;;4.53;84.15;98673.41;24461;1356;3026443;-67
2021/11/20 00:56:53;;;;;;;48.10;20.40;;;;;;;4.96;83.33;98662.23;24417;1361;3053346;-69
2021/11/20 00:59:23;;;;;;;59.10;21.50;;;;;;;5.04;82.77;98659.60;24441;1360;3026816;-68
2021/11/20 01:01:54;;;;;;;33.20;15.00;;;;;;;5.06;82.38;98641.46;24408;1354;3026758;-69
2021/11/20 01:04:24;;;;;;;47.90;18.60;;;;;;;5.00;82.55;98643.13;24438;1361;3050999;-68
2021/11/20 01:06:54;;;;;;;54.60;19.40;;;;;;;4.82;83.22;98645.56;24428;1357;3028461;-69
2021/11/20 01:09:44;;;;;;;33.40;14.90;;;;;;;4.69;83.98;98643.66;24466;1355;3051875;-72
2021/11/20 01:12:17;;;;;;;38.70;18.30;;;;;;;5.01;83.14;98634.95;24426;1354;3026768;-68
2021/11/20 01:14:48;;;;;;;43.90;18.80;;;;;;;5.19;82.22;98623.09;24392;1360;3050572;-70
2021/11/20 01:17:19;;;;;;;55.00;20.50;;;;;;;5.05;82.51;98613.89;24462;1359;3028476;-69
2021/11/20 01:19:48;;;;;;;78.20;24.10;;;;;;;4.95;82.94;98620.49;24446;1357;3027409;-73
2021/11/20 01:22:24;;;;;;;49.80;20.90;;;;;;;4.67;84.12;98623.95;24500;1353;3052811;-65
2021/11/20 01:25:11;;;;;;;42.90;18.90;;;;;;;5.13;83.14;98618.00;24510;1354;3054221;-70
2021/11/20 01:28:02;;;;;;;43.40;20.50;;;;;;;5.45;81.51;98603.98;24421;1355;3068877;-68
2021/11/20 01:31:03;;;;;;;42.20;18.30;;;;;;;4.97;83.10;98608.58;24489;1354;3052220;-68
2021/11/20 01:33:40;;;;;;;32.30;15.90;;;;;;;4.74;83.77;98605.04;24506;1353;3052741;-63
2021/11/20 01:36:11;;;;;;;42.00;19.80;;;;;;;4.67;83.98;98607.46;24477;1356;3026510;-68
2021/11/20 01:38:40;;;;;;;40.30;18.70;;;;;;;4.71;84.97;98601.72;24473;1358;3028725;-73
2021/11/20 01:41:19;;;;;;;50.30;21.40;;;;;;;5.22;82.68;98582.96;24491;1348;3049906;-71
2021/11/20 01:43:58;;;;;;;59.30;21.10;;;;;;;5.16;82.71;98579.67;24428;1356;3051518;-67
2021/11/20 01:46:29;;;;;;;62.70;24.00;;;;;;;5.11;82.56;98578.16;24491;1354;3026362;-72
2021/11/20 01:49:11;;;;;;;66.20;24.80;;;;;;;4.90;83.44;98577.55;24481;1354;3026465;-71
2021/11/20 01:51:49;;;;;;;29.10;12.60;;;;;;;4.86;84.42;98578.91;24449;1351;3050472;-70
2021/11/20 01:54:50;;;;;;;41.20;18.50;;;;;;;5.32;82.93;98569.60;24388;1360;3055934;-70
2021/11/20 01:57:42;;;;;;;59.60;22.80;;;;;;;5.53;81.45;98567.46;24358;1360;3056599;-74
2021/11/20 02:00:13;;;;;;;39.40;19.30;;;;;;;5.23;82.31;98565.41;24452;1348;3056035;-67
2021/11/20 02:03:19;;;;;;;54.90;23.30;;;;;;;4.98;83.16;98555.08;24490;1357;3052233;-69
2021/11/20 02:06:19;;;;;;;36.60;16.80;;;;;;;4.87;84.25;98556.66;24402;1356;3053457;-70
2021/11/20 02:09:26;;;;;;;42.90;19.90;;;;;;;5.45;82.19;98556.25;24442;1356;3051845;-75
2021/11/20 02:12:33;;;;;;;49.50;17.60;;;;;;;5.68;81.09;98557.59;24368;1361;3071002;-66
2021/11/20 02:15:06;;;;;;;;;;;;;;;5.43;81.59;98559.83;24485;1360;3049353;-71
2021/11/20 02:17:39;;;;;;;39.20;18.30;;;;;;;5.09;82.93;98553.79;24455;1357;3027213;-69
2021/11/20 02:20:21;;;;;;;43.60;17.40;;;;;;;4.81;84.77;98544.86;24438;1361;3052038;-74
2021/11/20 02:22:51;;;;;;;36.30;17.40;;;;;;;5.39;82.98;98536.77;24453;1355;3059053;-69
2021/11/20 02:25:22;;;;;;;46.50;20.70;;;;;;;5.39;82.24;98534.17;24458;1358;3026916;-71
2021/11/20 02:28:12;;;;;;;43.50;19.90;;;;;;;5.09;83.54;98530.34;24463;1354;3057459;-67
2021/11/20 02:30:45;;;;;;;36.00;19.90;;;;;;;5.00;83.87;98526.33;24430;1354;3026456;-67
2021/11/20 02:33:16;;;;;;;42.20;21.10;;;;;;;5.04;84.09;98516.73;24418;1354;3069232;-71
2021/11/20 02:35:51;;;;;;;24.00;11.30;;;;;;;5.47;83.28;98520.51;24436;1362;3047442;-71
2021/11/20 02:38:22;;;;;;;33.50;16.30;;;;;;;5.94;80.78;98516.20;24450;1359;3027784;-72
2021/11/20 02:40:52;;;;;;;42.70;20.20;;;;;;;5.95;80.70;98514.44;24409;1357;3026729;-68
2021/11/20 02:43:22;;;;;;;44.80;20.20;;;;;;;5.69;81.32;98515.16;24394;1354;3028183;-64
2021/11/20 02:46:05;;;;;;;47.90;20.20;;;;;;;5.36;82.65;98516.09;24445;1362;3052091;-66
2021/11/20 02:48:34;;;;;;;43.00;19.50;;;;;;;5.06;84.67;98509.87;24497;1354;3027982;-68
2021/11/20 02:51:06;;;;;;;34.90;16.30;;;;;;;5.47;84.08;98503.48;24478;1358;3026317;-67
2021/11/20 02:53:43;;;;;;;37.20;19.00;;;;;;;5.79;81.88;98489.54;24434;1358;3027573;-71
2021/11/20 02:56:18;;;;;;;38.00;19.20;;;;;;;5.75;81.84;98493.42;24494;1357;3048877;-71
2021/11/20 02:58:47;;;;;;;48.70;21.90;;;;;;;5.48;83.08;98497.04;24440;1357;3054785;-69
2021/11/20 03:01:36;;;;;;;45.50;21.90;;;;;;;5.25;84.22;98485.74;24370;1354;3026902;-70
2021/11/20 03:04:07;;;;;;;40.10;19.90;;;;;;;5.49;84.22;98486.40;24473;1358;3059479;-68
2021/11/20 03:06:37;;;;;;;47.60;20.90;;;;;;;5.66;83.55;98481.80;24446;1355;3026653;-70
2021/11/20 03:09:08;;;;;;;57.00;23.20;;;;;;;5.57;82.92;98472.74;24378;1357;3026594;-64
2021/11/20 03:11:39;;;;;;;55.00;22.00;;;;;;;5.38;83.80;98467.52;24496;1355;3027911;-75
2021/11/20 03:14:09;;;;;;;46.90;22.30;;;;;;;5.14;84.53;98465.86;24377;1354;3026236;-67
2021/11/20 03:16:46;;;;;;;45.20;22.10;;;;;;;5.29;85.14;98450.15;24471;1354;3049671;-70
2021/11/20 03:19:17;;;;;;;54.00;23.50;;;;;;;5.47;84.03;98448.46;24499;1354;3026206;-71
2021/11/20 03:21:49;;;;;;;44.50;21.20;;;;;;;5.39;84.35;98440.20;24427;1357;3028316;-75
2021/11/20 03:24:20;;;;;;;45.20;22.00;;;;;;;5.44;83.94;98439.09;24430;1361;3027168;-66
2021/11/20 03:26:49;;;;;;;42.40;19.90;;;;;;;5.27;84.41;98437.18;24385;1354;3026713;-71
2021/11/20 03:29:19;;;;;;;50.10;24.60;;;;;;;5.55;84.44;98432.69;24430;1361;3026621;-65
2021/11/20 03:31:50;;;;;;;46.60;19.30;;;;;;;5.74;83.15;98412.52;24468;1357;3026677;-67
2021/11/20 03:34:21;;;;;;;52.70;22.50;;;;;;;5.77;82.96;98418.63;24383;1361;3026697;-67
2021/11/20 03:36:51;;;;;;;59.90;23.10;;;;;;;5.28;84.56;98423.83;24473;1358;3027134;-73
2021/11/20 03:39:24;;;;;;;48.00;22.50;;;;;;;5.33;84.90;98408.06;24388;1360;3026133;-69
2021/11/20 03:41:54;;;;;;;48.20;22.60;;;;;;;5.79;83.57;98392.27;24438;1354;3027066;-72
2021/11/20 03:44:24;;;;;;;51.80;24.10;;;;;;;5.99;82.40;98387.13;24413;1357;3027341;-68
2021/11/20 03:46:54;;;;;;;48.60;22.40;;;;;;;5.85;82.53;98388.95;24424;1362;3026260;-69
2021/11/20 03:49:23;;;;;;;41.00;21.00;;;;;;;5.63;83.38;98390.92;24390;1358;3026146;-68
2021/11/20 03:51:52;;;;;;;48.20;21.90;;;;;;;5.54;83.68;98390.39;24440;1355;3026687;-73
2021/11/20 03:54:22;;;;;;;46.60;22.90;;;;;;;5.58;84.21;98385.63;24450;1354;3052167;-67
2021/11/20 03:56:53;;;;;;;40.50;19.50;;;;;;;5.70;83.62;98381.16;24485;1357;3026864;-70
2021/11/20 03:59:22;;;;;;;41.00;20.90;;;;;;;5.89;82.59;98382.27;24398;1360;3026250;-68
2021/11/20 04:01:51;;;;;;;45.10;23.00;;;;;;;5.69;83.32;98373.36;24381;1354;3027289;-69
2021/11/20 04:04:23;;;;;;;50.40;23.80;;;;;;;5.56;83.52;98372.21;24375;1351;3027342;-72
2021/11/20 04:06:53;;;;;;;41.00;21.50;;;;;;;5.35;84.82;98374.27;24415;1357;3026617;-69
2021/11/20 04:09:23;;;;;;;39.20;18.60;;;;;;;5.61;84.40;98368.80;24462;1357;3026581;-74
2021/11/20 04:11:56;;;;;;;41.30;18.90;;;;;;;5.90;83.04;98359.66;24482;1354;3027039;-71
2021/11/20 04:14:25;;;;;;;49.00;20.70;;;;;;;5.80;83.00;98360.94;24377;1358;3027742;-65
2021/11/20 04:16:54;;;;;;;47.90;23.20;;;;;;;5.66;83.48;98365.16;24512;1357;3052188;-67
2021/11/20 04:19:23;;;;;;;40.90;17.60;;;;;;;5.60;83.84;98367.48;24435;1354;3026819;-65
2021/11/20 04:21:53;;;;;;;39.20;18.10;;;;;;;5.80;83.47;98354.70;24412;1358;3050215;-74
2021/11/20 04:24:23;;;;;;;37.10;18.90;;;;;;;5.82;83.08;98345.36;24468;1354;3026586;-75
2021/11/20 04:27:12;;;;;;;43.50;21.60;;;;;;;5.60;84.26;98343.98;24438;1358;3058943;-67
2021/11/20 04:30:01;;;;;;;46.20;19.20;;;;;;;5.45;84.78;98350.05;24388;1354;3052215;-73
2021/11/20 04:32:31;;;;;;;44.30;20.20;;;;;;;5.29;85.57;98350.79;24604;1358;3026909;-67
2021/11/20 04:35:00;;;;;;;36.30;17.80;;;;;;;5.59;84.88;98338.69;24725;1359;3029140;-75
2021/11/20 04:37:29;;;;;;;43.70;20.30;;;;;;;5.65;84.49;98344.22;24378;1361;3052259;-65
2021/11/20 04:40:01;;;;;;;47.60;18.80;;;;;;;5.55;84.84;98335.25;24412;1354;3027491;-71
2021/11/20 04:42:31;;;;;;;43.30;20.90;;;;;;;5.34;85.57;98333.34;24439;1357;3028149;-72
2021/11/20 04:45:00;;;;;;;35.20;17.60;;;;;;;5.27;86.15;98341.02;24486;1354;3026291;-71
2021/11/20 04:47:29;;;;;;;38.50;17.20;;;;;;;5.71;85.32;98323.23;24465;1354;3052740;-69
2021/11/20 04:49:58;;;;;;;27.60;14.70;;;;;;;5.76;84.66;98321.17;24538;1354;3026456;-71
2021/11/20 04:52:27;;;;;;;45.50;20.30;;;;;;;5.93;83.57;98315.31;24381;1361;3051435;-70
2021/11/20 04:54:57;;;;;;;43.00;20.10;;;;;;;5.55;84.37;98314.58;24422;1360;3026956;-71
2021/11/20 04:57:26;;;;;;;36.20;15.90;;;;;;;5.38;85.81;98319.22;24422;1358;3055471;-67
2021/11/20 04:59:56;;;;;;;32.20;15.30;;;;;;;5.87;85.08;98320.36;24425;1360;3026476;-69
2021/11/20 05:02:26;;;;;;;32.60;17.10;;;;;;;6.08;83.19;98316.52;24462;1354;3027178;-69
2021/11/20 05:04:56;;;;;;;47.10;18.50;;;;;;;5.81;84.12;98316.17;24460;1351;3026537;-71
2021/11/20 05:07:25;;;;;;;42.80;19.90;;;;;;;5.75;84.44;98316.90;24485;1361;3027265;-65
2021/11/20 05:09:56;;;;;;;28.80;13.90;;;;;;;5.58;85.31;98316.66;24449;1356;3052559;-68
2021/11/20 05:12:31;;;;;;;29.80;15.50;;;;;;;5.93;84.27;98301.60;24398;1360;3054350;-67
2021/11/20 05:15:10;;;;;;;27.70;13.40;;;;;;;6.20;83.27;98296.83;24451;1358;3071158;-72
2021/11/20 05:17:39;;;;;;;50.90;19.90;;;;;;;6.03;83.23;98298.41;24473;1361;3027165;-69
2021/11/20 05:20:10;;;;;;;32.30;16.90;;;;;;;5.72;84.87;98298.16;24437;1354;3027372;-68
2021/11/20 05:22:40;;;;;;;29.10;14.40;;;;;;;5.64;85.60;98290.27;24473;1348;3028570;-70
2021/11/20 05:25:10;;;;;;;30.30;14.40;;;;;;;6.07;84.15;98272.97;24484;1358;3027013;-72
2021/11/20 05:27:42;;;;;;;36.40;16.70;;;;;;;6.39;82.45;98272.73;24425;1357;3026920;-70
2021/11/20 05:30:21;;;;;;;37.00;17.20;;;;;;;6.22;82.84;98274.80;24463;1357;3026846;-73
2021/11/20 05:32:50;;;;;;;35.10;16.20;;;;;;;6.13;83.03;98267.23;24453;1357;3053761;-71
2021/11/20 05:35:20;;;;;;;28.50;14.60;;;;;;;5.85;84.27;98265.38;24457;1354;3026397;-69
2021/11/20 05:37:49;;;;;;;32.00;15.60;;;;;;;6.34;83.05;98266.41;24438;1359;3055881;-68
2021/11/20 05:40:19;;;;;;;29.30;14.40;;;;;;;6.29;82.98;98260.84;24457;1354;3030799;-73
2021/11/20 05:42:52;;;;;;;34.00;15.60;;;;;;;6.36;82.28;98261.99;24406;1354;3052115;-71
2021/11/20 05:45:24;;;;;;;35.80;16.40;;;;;;;5.86;84.07;98265.84;24461;1354;3055223;-70
2021/11/20 05:47:53;;;;;;;18.60;10.20;;;;;;;5.80;84.95;98269.33;24406;1357;3026365;-63
2021/11/20 05:50:24;;;;;;;31.20;14.00;;;;;;;6.24;83.79;98271.59;24448;1354;3026518;-70
2021/11/20 05:52:54;;;;;;;30.60;14.10;;;;;;;6.40;82.69;98255.78;24422;1355;3026515;-70
2021/11/20 05:55:25;;;;;;;31.90;14.70;;;;;;;6.27;82.76;98259.07;24447;1354;3026838;-70
2021/11/20 05:57:54;;;;;;;29.50;14.60;;;;;;;6.03;83.70;98258.75;24437;1357;3026343;-68
2021/11/20 06:00:30;;;;;;;27.70;12.40;;;;;;;5.76;84.93;98262.80;24475;1357;3027871;-72
2021/11/20 06:03:00;;;;;;;30.80;14.80;;;;;;;6.25;83.99;98265.27;24421;1358;3050278;-71
2021/11/20 06:05:50;;;;;;;30.60;15.30;;;;;;;6.21;83.55;98237.69;24482;1355;3053487;-68
2021/11/20 06:08:20;;;;;;;31.50;14.90;;;;;;;6.10;83.82;98241.31;24499;1354;3026587;-69
2021/11/20 06:10:53;;;;;;;33.50;15.50;;;;;;;5.94;84.42;98250.06;24484;1355;3026535;-69
2021/11/20 06:13:23;;;;;;;25.00;12.60;;;;;;;5.96;84.91;98252.73;24398;1357;3026824;-70
2021/11/20 06:16:03;;;;;;;20.80;10.80;;;;;;;6.55;82.80;98248.07;24460;1362;3054994;-72
2021/11/20 06:18:32;;;;;;;20.20;10.30;;;;;;;6.63;81.89;98250.71;24426;1357;3026469;-72
2021/11/20 06:21:03;;;;;;;24.70;14.00;;;;;;;6.42;82.54;98251.83;24446;1358;3026466;-70
2021/11/20 06:23:33;;;;;;;25.10;13.00;;;;;;;6.12;83.73;98245.03;24434;1354;3026584;-70
2021/11/20 06:26:07;;;;;;;15.30;8.20;;;;;;;6.16;84.32;98248.27;24485;1359;3052449;-72
2021/11/20 06:28:36;;;;;;;17.10;9.70;;;;;;;6.53;82.98;98244.71;24423;1354;3026675;-68
2021/11/20 06:31:06;;;;;;;18.20;10.20;;;;;;;6.60;82.32;98232.78;24425;1348;3028617;-71
2021/11/20 06:33:37;;;;;;;21.40;10.80;;;;;;;6.52;82.57;98231.04;24508;1354;3026313;-72
2021/11/20 06:36:26;;;;;;;17.20;9.00;;;;;;;6.23;83.26;98229.54;24437;1354;3055313;-67
2021/11/20 06:39:04;;;;;;;13.80;7.50;;;;;;;6.27;84.19;98228.24;24453;1354;3052595;-70
2021/11/20 06:41:33;;;;;;;8.90;5.70;;;;;;;6.68;82.61;98218.21;24413;1357;3029435;-72
2021/11/20 06:44:03;;;;;;;12.20;7.10;;;;;;;6.78;81.57;98199.45;24466;1354;3054648;-68
2021/11/20 06:46:33;;;;;;;13.30;7.80;;;;;;;6.32;83.33;98216.12;24496;1354;3026768;-74
2021/11/20 06:49:03;;;;;;;14.20;7.40;;;;;;;6.18;84.33;98205.88;24479;1354;3027494;-65
2021/11/20 06:51:38;;;;;;;13.40;6.50;;;;;;;6.24;84.83;98197.52;24428;1354;3050062;-65
2021/11/20 06:54:26;;;;;;;8.20;5.50;;;;;;;6.81;82.47;98190.71;24472;1354;3055237;-67
2021/11/20 06:57:26;;;;;;;12.50;7.50;;;;;;;7.03;81.65;98187.17;24436;1354;3051776;-66
2021/11/20 07:00:27;;;;;;;8.90;5.30;;;;;;;6.83;81.76;98181.02;24400;1354;3071509;-68
2021/11/20 07:03:16;;;;;;;11.20;5.80;;;;;;;6.43;83.28;98199.25;24434;1351;3049481;-70
2021/11/20 07:05:54;;;;;;;6.50;4.60;;;;;;;6.58;83.51;98187.67;24507;1358;3055183;-67
2021/11/20 07:08:24;;;;;;;9.10;5.30;;;;;;;7.43;80.77;98181.54;24417;1362;3056431;-70
2021/11/20 07:10:54;;;;;;;10.40;6.60;;;;;;;7.06;81.02;98181.26;24434;1361;3026611;-65
2021/11/20 07:13:24;;;;;;;8.40;4.50;;;;;;;6.81;82.44;98171.42;24432;1357;3028442;-67
2021/11/20 07:15:53;;;;;;;7.00;4.20;;;;;;;6.78;82.54;98172.61;24432;1357;3026503;-68
2021/11/20 07:18:24;;;;;;;8.10;4.20;;;;;;;7.01;82.33;98175.31;24482;1358;3058669;-68
2021/11/20 07:21:12;;;;;;;6.70;3.90;;;;;;;7.50;80.23;98165.23;24397;1354;3049316;-70
2021/11/20 07:23:44;;;;;;;9.80;6.30;;;;;;;6.86;82.01;98177.68;24422;1354;3026791;-71
2021/11/20 07:26:14;;;;;;;6.10;3.70;;;;;;;6.96;82.52;98165.56;24464;1355;3026577;-69
2021/11/20 07:28:44;;;;;;;8.30;4.80;;;;;;;7.02;82.21;98167.23;24471;1358;3027452;-72
2021/11/20 07:31:13;;;;;;;7.10;4.80;;;;;;;7.39;81.29;98167.38;24479;1355;3027159;-73
2021/11/20 07:33:42;;;;;;;7.60;4.80;;;;;;;7.29;80.85;98156.55;24465;1354;3027228;-66
2021/11/20 07:36:12;;;;;;;10.30;6.00;;;;;;;6.93;82.47;98157.20;24437;1354;3026193;-69
2021/11/20 07:38:55;;;;;;;12.70;5.70;;;;;;;6.79;83.72;98147.34;24397;1360;3051113;-71
2021/11/20 07:41:24;;;;;;;12.50;7.10;;;;;;;6.85;83.34;98147.46;24447;1360;3055362;-71
2021/11/20 07:43:55;;;;;;;10.60;6.00;;;;;;;7.30;82.14;98139.96;24416;1357;3026484;-68
2021/11/20 07:46:29;;;;;;;7.50;5.60;;;;;;;7.48;81.12;98142.70;24482;1354;3055963;-67
2021/11/20 07:48:59;;;;;;;8.50;5.50;;;;;;;7.36;81.26;98154.48;24434;1358;3028285;-68
2021/11/20 07:51:29;;;;;;;10.40;6.30;;;;;;;7.05;82.82;98155.89;24488;1354;3027257;-70
2021/11/20 07:54:00;;;;;;;8.90;5.40;;;;;;;7.09;83.17;98157.55;24459;1354;3026165;-67
2021/11/20 07:56:29;;;;;;;11.00;7.80;;;;;;;7.23;83.21;98134.70;24446;1359;3026603;-68
2021/11/20 07:59:00;;;;;;;12.10;8.20;;;;;;;7.40;82.23;98119.02;24452;1357;3051290;-68
2021/11/20 08:01:29;;;;;;;10.60;6.90;;;;;;;6.89;84.23;98130.67;24489;1354;3026260;-67
2021/11/20 08:03:59;;;;;;;7.00;4.70;;;;;;;6.95;84.62;98135.16;24484;1354;3051675;-69
2021/11/20 08:06:41;;;;;;;10.70;5.10;;;;;;;7.66;82.81;98110.45;24289;1348;3267654;-71
2021/11/20 08:09:27;;;;;;;9.00;5.30;;;;;;;7.55;82.23;98115.55;24468;1351;3051803;-68
2021/11/20 08:12:02;;;;;;;7.00;4.90;;;;;;;7.41;83.13;98112.00;24436;1357;3071344;-70
2021/11/20 08:14:50;;;;;;;11.30;5.90;;;;;;;7.01;84.64;98099.39;24455;1354;3052129;-68
2021/11/20 08:17:46;;;;;;;7.10;5.00;;;;;;;7.65;82.70;98125.17;24438;1351;3054893;-68
2021/11/20 08:20:26;;;;;;;11.70;6.10;;;;;;;7.70;82.44;98105.30;24493;1360;3054744;-66
2021/11/20 08:23:19;;;;;;;15.30;6.00;;;;;;;7.53;83.18;98105.79;24421;1354;3060236;-65
2021/11/20 08:25:49;;;;;;;8.70;4.40;;;;;;;7.43;83.10;98104.73;24493;1358;3027611;-68
2021/11/20 08:28:19;;;;;;;10.10;5.60;;;;;;;7.89;82.18;98101.17;24494;1358;3027268;-66
2021/11/20 08:30:50;;;;;;;10.10;6.60;;;;;;;8.02;81.34;98092.19;24503;1354;3027717;-67
2021/11/20 08:33:20;;;;;;;11.20;7.70;;;;;;;8.09;80.88;98091.77;24415;1354;3026583;-68
2021/11/20 08:36:11;;;;;;;9.50;5.90;;;;;;;7.75;82.35;98089.11;24468;1360;3051308;-67
2021/11/20 08:39:04;;;;;;;10.60;6.60;;;;;;;7.89;82.74;98083.70;24495;1354;3053146;-70
2021/11/20 08:41:34;;;;;;;9.50;7.20;;;;;;;8.20;81.75;98071.02;24460;1360;3027057;-71
2021/11/20 08:44:04;;;;;;;12.30;8.00;;;;;;;8.38;80.43;98061.00;24398;1359;3026946;-70
2021/11/20 08:46:47;;;;;;;17.60;8.90;;;;;;;7.99;82.07;98051.09;24493;1358;3053594;-71
2021/11/20 08:49:16;;;;;;;11.20;7.20;;;;;;;7.74;83.74;98065.61;24442;1354;3028460;-67
2021/11/20 08:51:46;;;;;;;18.10;10.70;;;;;;;8.29;82.34;98055.74;24464;1355;3056281;-69
2021/11/20 08:54:15;;;;;;;14.40;9.60;;;;;;;8.36;81.83;98044.94;24479;1356;3026628;-68
2021/11/20 08:56:47;;;;;;;21.00;13.50;;;;;;;8.48;81.12;98049.97;24529;1357;3027068;-75
2021/11/20 08:59:22;;;;;;;18.30;11.70;;;;;;;8.37;81.72;98054.77;24485;1355;3051589;-74
2021/11/20 09:02:34;;;;;;;18.50;10.90;;;;;;;8.61;81.24;98042.23;24373;1354;3071330;-68
2021/11/20 09:05:23;;;;;;;14.00;10.40;;;;;;;8.73;81.18;98045.88;24487;1354;3048163;-69
2021/11/20 09:08:23;;;;;;;16.90;11.00;;;;;;;8.88;80.36;98045.41;24461;1360;3055214;-69
2021/11/20 09:11:06;;;;;;;16.20;10.00;;;;;;;8.60;81.52;98052.12;24373;1357;3051346;-70
2021/11/20 09:13:42;;;;;;;15.90;10.20;;;;;;;8.85;81.45;98044.77;24452;1356;3055139;-71
2021/11/20 09:16:14;;;;;;;18.10;12.60;;;;;;;9.07;80.70;98032.80;24455;1354;3052792;-71
2021/11/20 09:18:43;;;;;;;15.70;10.10;;;;;;;8.91;80.95;98024.97;24482;1354;3026523;-71
2021/11/20 09:21:13;;;;;;;18.70;10.30;;;;;;;8.82;81.56;98033.88;24449;1357;3026902;-67
2021/11/20 09:24:02;;;;;;;17.50;12.00;;;;;;;8.95;81.72;98022.70;24484;1360;3071083;-67
2021/11/20 09:28:47;;;;;;;16.60;11.10;;;;;;;9.35;80.19;98004.23;30816;1360;3026342;-69
2021/11/20 09:31:16;;;;;;;19.00;14.20;;;;;;;9.34;80.10;98000.66;24309;1364;3027048;-72
2021/11/20 09:33:46;;;;;;;20.60;11.40;;;;;;;9.54;80.39;98007.30;24298;1367;3027196;-70
2021/11/20 09:36:15;;;;;;;14.70;10.60;;;;;;;9.93;78.95;97991.09;24392;1368;3026371;-71
2021/11/20 09:39:14;;;;;;;18.30;11.10;;;;;;;9.73;79.07;97991.63;24427;1363;3055383;-68
2021/11/20 09:42:06;;;;;;;15.70;10.80;;;;;;;9.75;79.37;97994.80;24297;1359;3026513;-66
2021/11/20 09:44:46;;;;;;;11.60;8.00;;;;;;;9.65;80.91;97994.19;24465;1355;3056424;-73
2021/11/20 09:47:22;;;;;;;11.40;7.80;;;;;;;10.16;78.82;97978.52;24409;1360;3052305;-70
2021/11/20 09:49:53;;;;;;;13.30;8.80;;;;;;;9.94;79.43;97979.42;24455;1360;3055097;-72
2021/11/20 09:52:23;;;;;;;9.10;6.30;;;;;;;9.79;79.97;97980.66;24436;1358;3026475;-71
2021/11/20 09:54:53;;;;;;;10.60;6.30;;;;;;;9.47;81.56;97970.48;24409;1359;3026684;-71
2021/11/20 09:57:32;;;;;;;12.80;7.00;;;;;;;10.02;80.44;97980.67;24416;1359;3055089;-69
2021/11/20 10:00:27;;;;;;;10.70;6.80;;;;;;;10.40;78.48;97982.36;24480;1360;3053243;-71
2021/11/20 10:03:01;;;;;;;12.80;7.00;;;;;;;10.06;79.55;97973.94;24435;1361;3070068;-74
2021/11/20 10:05:36;;;;;;;13.50;8.90;;;;;;;9.78;80.16;97980.94;24471;1360;3026954;-71
2021/11/20 10:08:15;;;;;;;8.80;6.20;;;;;;;9.52;81.80;97983.84;24439;1357;3052044;-72
2021/11/20 10:10:49;;;;;;;8.40;5.10;;;;;;;10.26;79.62;97970.00;24448;1354;3052177;-65
2021/11/20 10:13:28;;;;;;;15.50;9.00;;;;;;;10.39;78.53;97976.31;24425;1357;3027109;-72
2021/11/20 10:16:12;;;;;;;11.10;8.20;;;;;;;10.00;79.58;97974.05;24424;1357;3052251;-70
2021/11/20 10:19:08;;;;;;;11.90;7.80;;;;;;;9.95;80.29;97975.17;24469;1354;3055610;-70
2021/11/20 10:21:42;;;;;;;9.10;6.60;;;;;;;10.05;79.99;97978.56;24446;1360;3053901;-69
2021/11/20 10:24:41;;;;;;;9.40;5.80;;;;;;;10.19;79.72;97976.35;24435;1354;3027077;-66
2021/11/20 10:27:28;;;;;;;12.50;7.20;;;;;;;10.40;78.55;97974.27;24437;1360;3051306;-74
2021/11/20 10:30:26;;;;;;;9.30;5.20;;;;;;;10.31;79.36;97967.33;24410;1360;3055054;-71
2021/11/20 10:33:07;;;;;;;6.70;5.10;;;;;;;10.65;78.12;97962.07;24484;1358;3055787;-69
2021/11/20 10:35:48;;;;;;;8.70;5.90;;;;;;;10.50;78.71;97964.04;24438;1354;3059367;-65
2021/11/20 10:38:24;;;;;;;8.80;6.30;;;;;;;10.55;78.46;97960.15;24359;1357;3052931;-71
2021/11/20 10:41:07;;;;;;;8.90;5.80;;;;;;;10.25;79.39;97970.44;24393;1354;3053356;-75
2021/11/20 10:43:43;;;;;;;11.20;7.10;;;;;;;10.49;79.30;97966.70;24460;1355;3053569;-69
2021/11/20 10:46:51;;;;;;;12.60;7.80;;;;;;;10.66;77.82;97968.64;24476;1354;3069015;-68
2021/11/20 10:49:29;;;;;;;10.50;7.90;;;;;;;10.53;78.37;97965.89;24455;1354;3049880;-71
2021/11/20 10:52:10;;;;;;;10.50;7.70;;;;;;;10.44;78.53;97960.16;24436;1354;3055271;-74
2021/11/20 10:55:16;;;;;;;10.50;5.90;;;;;;;10.44;78.72;97957.02;24457;1356;3054867;-72
2021/11/20 10:58:01;;;;;;;8.00;5.00;;;;;;;11.06;76.32;97937.57;24467;1361;3059336;-74
2021/11/20 11:00:55;;;;;;;11.30;5.80;;;;;;;10.93;75.94;97937.66;24478;1361;3050204;-72
2021/11/20 11:03:39;;;;;;;10.60;5.60;;;;;;;10.68;76.87;97945.37;24427;1354;3052779;-70
2021/11/20 11:06:46;;;;;;;12.40;6.30;;;;;;;10.56;77.30;97951.27;24441;1355;3051080;-71
2021/11/20 11:09:36;;;;;;;9.50;4.90;;;;;;;10.48;77.80;97951.93;24449;1359;3071259;-70
2021/11/20 11:12:32;;;;;;;7.50;4.30;;;;;;;11.13;75.49;97940.86;24405;1354;3052346;-70
2021/11/20 11:15:22;;;;;;;13.90;5.30;;;;;;;10.95;75.46;97947.60;24463;1354;3052772;-75
2021/11/20 11:18:20;;;;;;;12.80;5.20;;;;;;;10.92;75.68;97946.27;24459;1360;3055316;-67
2021/11/20 11:21:23;;;;;;;7.40;4.10;;;;;;;10.86;75.45;97949.92;24440;1353;3056534;-75
2021/11/20 11:24:27;;;;;;;5.60;3.30;;;;;;;10.67;76.41;97956.14;24462;1355;3050022;-69
2021/11/20 11:27:07;;;;;;;10.60;3.10;;;;;;;11.09;74.40;97952.03;24439;1356;3052647;-72
2021/11/20 11:29:59;;;;;;;8.90;4.10;;;;;;;11.19;74.01;97954.80;24478;1357;3050189;-68
2021/11/20 11:32:29;;;;;;;7.20;3.90;;;;;;;11.13;73.86;97954.14;24441;1355;3068613;-66
2021/11/20 11:35:14;;;;;;;5.50;3.10;;;;;;;10.92;74.38;97961.89;24441;1363;3026952;-69
2021/11/20 11:38:15;;;;;;;6.60;2.80;;;;;;;10.89;74.55;97943.41;24421;1355;3052777;-73
2021/11/20 11:41:06;;;;;;;6.00;3.00;;;;;;;11.29;73.68;97943.45;24418;1357;3055256;-72
2021/11/20 11:44:09;;;;;;;8.60;3.80;;;;;;;11.50;72.64;97957.38;24421;1363;3056164;-69
2021/11/20 11:47:33;;;;;;;10.10;4.70;;;;;;;11.39;72.65;97955.37;24386;1357;3054487;-77
2021/11/20 11:50:37;;;;;;;7.70;3.70;;;;;;;11.23;72.81;97961.48;24303;1359;3053296;-71
2021/11/20 11:53:25;;;;;;;9.80;4.70;;;;;;;10.90;73.94;97960.61;24404;1360;3055047;-71
2021/11/20 11:55:55;;;;;;;7.90;3.90;;;;;;;10.88;74.76;97964.70;24387;1357;3070896;-79
2021/11/20 11:58:30;;;;;;;7.10;3.60;;;;;;;11.43;73.01;97968.86;24378;1357;3029543;-70
2021/11/20 12:01:07;;;;;;;7.50;3.90;;;;;;;11.49;72.46;97957.79;24407;1357;3052045;-69